createdAt,value
2022-11-09T00:03:25.378Z,62.50
2022-11-09T00:07:28.087Z,60.30
2022-11-09T00:11:28.296Z,59.96
2022-11-09T00:15:28.438Z,60.33
2022-11-09T00:19:29.359Z,62.43
2022-11-09T00:23:31.987Z,60.47
2022-11-09T00:27:32.135Z,60.29
2022-11-09T00:31:32.212Z,59.96
2022-11-09T00:35:32.357Z,60.77
2022-11-09T00:39:35.043Z,60.35
2022-11-09T00:43:36.000Z,60.17
2022-11-09T00:47:36.433Z,60.64
2022-11-09T00:51:36.621Z,60.76
2022-11-09T00:55:39.378Z,60.85
2022-11-09T00:59:39.556Z,61.07
2022-11-09T01:03:40.212Z,61.00
2022-11-09T01:07:41.771Z,60.29
2022-11-09T01:11:44.508Z,61.02
2022-11-09T01:15:46.420Z,61.05
2022-11-09T01:19:46.742Z,61.35
2022-11-09T01:23:48.139Z,61.93
2022-11-09T01:27:50.858Z,61.48
2022-11-09T01:31:51.143Z,62.62
2022-11-09T01:35:51.260Z,61.14
2022-11-09T01:39:51.410Z,61.74
2022-11-09T01:44:13.922Z,61.29
2022-11-09T01:48:20.739Z,61.35
2022-11-09T01:52:30.435Z,60.97
2022-11-09T01:56:32.806Z,61.13
2022-11-09T02:00:39.247Z,60.70
2022-11-09T02:04:46.021Z,60.90
2022-11-09T02:08:48.719Z,61.39
2022-11-09T02:12:49.938Z,61.68
2022-11-09T02:16:53.533Z,61.69
2022-11-09T02:21:00.054Z,61.20
2022-11-09T02:25:00.246Z,62.91
2022-11-09T02:29:04.958Z,62.03
2022-11-09T02:33:06.113Z,61.87
2022-11-09T02:37:09.413Z,61.87
2022-11-09T02:41:12.205Z,61.78
2022-11-09T02:45:14.031Z,61.31
2022-11-09T02:49:15.659Z,61.39
2022-11-09T02:53:18.747Z,61.70
2022-11-09T02:57:19.252Z,61.48
2022-11-09T03:01:19.544Z,61.28
2022-11-09T03:05:20.113Z,61.97
2022-11-09T03:09:23.016Z,62.32
2022-11-09T03:13:24.260Z,62.77
2022-11-09T03:17:27.356Z,62.30
2022-11-09T03:21:28.034Z,62.04
2022-11-09T03:25:31.257Z,62.38
2022-11-09T03:29:33.545Z,62.46
2022-11-09T03:33:34.903Z,62.47
2022-11-09T03:37:35.339Z,61.93
2022-11-09T03:41:39.413Z,61.31
2022-11-09T03:45:42.137Z,60.97
2022-11-09T03:49:42.222Z,60.66
2022-11-09T03:53:42.333Z,60.51
2022-11-09T03:57:46.918Z,60.56
2022-11-09T04:01:48.209Z,61.48
2022-11-09T04:05:48.509Z,61.13
2022-11-09T04:09:48.635Z,61.60
2022-11-09T04:13:51.394Z,61.58
2022-11-09T04:17:58.915Z,61.94
2022-11-09T04:21:59.089Z,61.67
2022-11-09T04:26:02.071Z,61.21
2022-11-09T04:30:04.760Z,61.33
2022-11-09T04:34:04.902Z,61.88
2022-11-09T04:38:08.440Z,61.55
2022-11-09T04:42:09.210Z,61.71
2022-11-09T04:46:11.981Z,61.81
2022-11-09T04:50:13.483Z,61.17
2022-11-09T04:54:14.459Z,60.91
2022-11-09T04:58:14.923Z,60.36
2022-11-09T05:02:17.793Z,60.41
2022-11-09T05:06:30.717Z,60.40
2022-11-09T05:10:31.396Z,59.71
2022-11-09T05:14:31.550Z,59.55
2022-11-09T05:18:34.370Z,59.15
2022-11-09T05:22:47.011Z,59.08
2022-11-09T05:26:47.298Z,58.76
2022-11-09T05:30:47.534Z,59.41
2022-11-09T05:34:50.211Z,58.98
2022-11-09T05:38:50.714Z,59.05
2022-11-09T05:42:51.212Z,60.22
2022-11-09T05:46:52.040Z,60.79
2022-11-09T05:50:54.767Z,61.47
2022-11-09T05:54:57.722Z,61.41
2022-11-09T05:58:58.109Z,61.38
2022-11-09T06:03:04.909Z,60.89
2022-11-09T06:07:08.549Z,60.18
2022-11-09T06:11:12.025Z,60.10
2022-11-09T06:15:12.971Z,59.85
2022-11-09T06:19:13.281Z,59.81
2022-11-09T06:23:16.181Z,59.65
2022-11-09T06:27:16.347Z,59.98
2022-11-09T06:31:20.705Z,59.63
2022-11-09T06:35:21.002Z,60.18
2022-11-09T06:39:23.698Z,60.13
2022-11-09T06:43:24.167Z,60.31
2022-11-09T06:47:24.293Z,59.52
2022-11-09T06:51:24.475Z,59.42
2022-11-09T06:55:27.498Z,59.07
2022-11-09T06:59:27.706Z,58.79
2022-11-09T07:03:29.807Z,58.90
2022-11-09T07:07:30.024Z,57.57
2022-11-09T07:11:33.008Z,57.63
2022-11-09T07:15:33.888Z,56.78
2022-11-09T07:19:34.164Z,56.71
2022-11-09T07:23:34.288Z,56.30
2022-11-09T07:27:38.108Z,56.28
2022-11-09T07:31:38.304Z,55.98
2022-11-09T07:35:38.934Z,56.15
2022-11-09T07:39:39.013Z,55.92
2022-11-09T07:43:41.662Z,55.25
2022-11-09T07:47:41.877Z,56.10
2022-11-09T07:51:42.424Z,55.29
2022-11-09T07:55:43.078Z,55.75
2022-11-09T07:59:46.160Z,55.82
2022-11-09T08:03:46.381Z,55.45
2022-11-09T08:07:46.653Z,54.74
2022-11-09T08:11:46.775Z,55.38
2022-11-09T08:15:49.864Z,55.27
2022-11-09T08:19:50.147Z,54.00
2022-11-09T08:23:50.781Z,54.00
2022-11-09T08:27:51.464Z,54.10
2022-11-09T08:31:55.341Z,54.11
2022-11-09T08:35:55.610Z,53.64
2022-11-09T08:39:55.693Z,54.02
2022-11-09T08:43:55.791Z,54.01
2022-11-09T08:48:04.291Z,55.36
2022-11-09T08:52:04.992Z,55.56
2022-11-09T08:56:05.284Z,55.66
2022-11-09T09:00:07.794Z,55.36
2022-11-09T09:04:13.726Z,54.47
2022-11-09T09:08:15.694Z,54.30
2022-11-09T09:12:15.888Z,55.28
2022-11-09T09:16:19.087Z,56.23
2022-11-09T09:20:22.175Z,56.17
2022-11-09T09:24:22.530Z,56.58
2022-11-09T09:28:22.877Z,56.29
2022-11-09T09:32:23.259Z,56.11
2022-11-09T09:36:28.632Z,55.50
2022-11-09T09:40:37.616Z,55.63
2022-11-09T09:44:46.259Z,55.54
2022-11-09T09:48:54.444Z,55.38
2022-11-09T09:53:23.232Z,54.53
2022-11-09T09:57:28.790Z,53.77
2022-11-09T10:01:40.086Z,54.05
2022-11-09T10:05:57.487Z,53.93
2022-11-09T10:10:20.378Z,52.94
2022-11-09T10:15:02.648Z,52.85
2022-11-09T10:19:29.159Z,52.42
2022-11-09T10:24:03.392Z,51.71
2022-11-09T10:28:13.563Z,50.90
2022-11-09T10:32:19.274Z,51.60
2022-11-09T10:36:30.279Z,51.71
2022-11-09T10:40:36.976Z,51.98
2022-11-09T10:44:58.815Z,53.42
2022-11-09T10:49:24.513Z,53.13
2022-11-09T10:53:43.325Z,53.31
2022-11-09T10:58:06.431Z,53.05
2022-11-09T11:02:53.364Z,51.42
2022-11-09T11:07:21.601Z,50.37
2022-11-09T11:11:42.849Z,46.68
2022-11-09T11:16:02.347Z,44.14
2022-11-09T11:20:36.330Z,42.92
2022-11-09T11:24:59.763Z,42.83
2022-11-09T11:29:34.240Z,42.56
2022-11-09T11:33:53.309Z,43.27
2022-11-09T11:38:30.347Z,45.47
2022-11-09T11:43:13.892Z,46.04
2022-11-09T11:47:48.226Z,46.37
2022-11-09T11:52:20.127Z,47.03
2022-11-09T11:56:46.826Z,46.76
2022-11-09T12:01:27.243Z,45.50
2022-11-09T12:06:44.223Z,42.71
2022-11-09T12:11:18.553Z,43.35
2022-11-09T12:15:56.540Z,44.29
2022-11-09T12:20:33.988Z,43.79
2022-11-09T12:25:03.084Z,42.62
2022-11-09T12:29:25.435Z,41.17
2022-11-09T12:33:53.640Z,41.44
2022-11-09T12:38:21.222Z,42.76
2022-11-09T12:42:47.790Z,43.70
2022-11-09T12:47:15.553Z,43.97
2022-11-09T12:51:38.260Z,43.77
2022-11-09T12:56:03.690Z,43.86
2022-11-09T13:00:55.370Z,39.42
2022-11-09T13:05:33.393Z,39.29
2022-11-09T13:10:02.663Z,38.90
2022-11-09T13:14:45.023Z,37.39
2022-11-09T13:19:06.180Z,39.17
2022-11-09T13:29:17.020Z,38.22
2022-11-09T13:33:39.696Z,37.70
2022-11-09T13:38:00.566Z,36.97
2022-11-09T13:42:32.138Z,36.32
2022-11-09T13:46:53.889Z,37.54
2022-11-09T13:51:18.558Z,37.94
2022-11-09T13:55:41.244Z,38.96
2022-11-09T14:00:03.277Z,39.62
2022-11-09T14:04:26.840Z,40.62
2022-11-09T14:08:49.428Z,42.28
2022-11-09T14:13:32.494Z,42.06
2022-11-09T14:18:08.008Z,43.18
2022-11-09T14:22:26.827Z,44.09
2022-11-09T14:27:18.084Z,45.56
2022-11-09T14:31:46.599Z,46.10
2022-11-09T14:36:07.799Z,47.87
2022-11-09T14:40:29.787Z,46.73
2022-11-09T14:44:52.623Z,48.55
2022-11-09T14:49:14.962Z,48.69
2022-11-09T14:53:37.808Z,48.77
2022-11-09T14:57:59.385Z,48.74
2022-11-09T15:02:23.045Z,48.83
2022-11-09T15:06:51.031Z,49.11
2022-11-09T15:11:10.476Z,49.38
2022-11-09T15:15:33.108Z,49.89
2022-11-09T15:19:57.732Z,49.51
2022-11-09T15:24:20.175Z,49.99
2022-11-09T15:28:50.739Z,50.18
2022-11-09T15:33:28.924Z,50.13
2022-11-09T15:37:56.487Z,51.13
2022-11-09T15:42:15.729Z,50.73
2022-11-09T15:46:40.200Z,51.08
2022-11-09T15:50:59.796Z,50.48
2022-11-09T15:55:25.832Z,50.92
2022-11-09T15:59:44.823Z,50.86
2022-11-09T16:04:03.423Z,51.16
2022-11-09T16:08:22.737Z,53.03
2022-11-09T16:12:46.533Z,53.48
2022-11-09T16:17:05.960Z,53.78
2022-11-09T16:21:24.823Z,54.05
2022-11-09T16:25:44.835Z,54.26
2022-11-09T16:30:07.415Z,54.40
2022-11-09T16:34:26.001Z,54.02
2022-11-09T16:38:48.523Z,53.80
2022-11-09T16:43:07.394Z,54.09
2022-11-09T16:47:28.642Z,54.24
2022-11-09T16:51:47.012Z,54.29
2022-11-09T16:56:05.744Z,54.77
2022-11-09T17:00:33.749Z,54.22
2022-11-09T17:05:07.381Z,54.43
2022-11-09T17:09:26.020Z,54.48
2022-11-09T17:13:45.051Z,54.93
2022-11-09T17:18:03.676Z,55.10
2022-11-09T17:22:25.447Z,55.21
2022-11-09T17:26:44.071Z,55.00
2022-11-09T17:31:02.847Z,54.80
2022-11-09T17:35:21.463Z,55.31
2022-11-09T17:39:42.695Z,55.40
2022-11-09T17:44:04.151Z,55.38
2022-11-09T17:48:23.122Z,56.09
2022-11-09T17:52:42.206Z,55.89
2022-11-09T17:57:04.080Z,55.97
2022-11-09T18:01:24.483Z,56.57
2022-11-09T18:05:45.473Z,57.24
2022-11-09T18:10:04.213Z,58.07
2022-11-09T18:14:25.622Z,58.89
2022-11-09T18:18:44.713Z,57.54
2022-11-09T18:23:03.214Z,56.86
2022-11-09T18:27:26.077Z,57.19
2022-11-09T18:31:52.080Z,58.46
2022-11-09T18:36:15.772Z,58.80
2022-11-09T18:40:34.958Z,58.63
2022-11-09T18:44:53.744Z,58.90
2022-11-09T18:49:15.413Z,58.67
2022-11-09T18:53:39.300Z,58.43
2022-11-09T18:57:57.875Z,58.42
2022-11-09T19:02:17.192Z,58.27
2022-11-09T19:06:38.743Z,58.47
2022-11-09T19:10:57.453Z,59.26
2022-11-09T19:15:16.122Z,58.84
2022-11-09T19:19:34.544Z,58.28
2022-11-09T19:23:56.804Z,59.61
2022-11-09T19:28:15.301Z,59.70
2022-11-09T19:32:33.991Z,58.77
2022-11-09T19:36:52.947Z,59.54
2022-11-09T19:41:14.555Z,59.48
2022-11-09T19:45:32.996Z,59.62
2022-11-09T19:49:51.871Z,59.97
2022-11-09T19:54:10.965Z,60.43
2022-11-09T19:58:31.994Z,60.76
2022-11-09T20:02:53.275Z,61.19
2022-11-09T20:07:12.560Z,61.11
2022-11-09T20:11:48.430Z,62.51
2022-11-09T20:16:13.234Z,61.98
2022-11-09T20:20:35.155Z,61.70
2022-11-09T20:25:04.962Z,62.13
2022-11-09T20:29:36.955Z,62.09
2022-11-09T20:34:03.170Z,61.99
2022-11-09T20:38:23.212Z,61.99
2022-11-09T20:42:42.728Z,61.99
2022-11-09T20:47:01.993Z,62.41
2022-11-09T20:51:29.081Z,62.33
2022-11-09T20:55:50.961Z,61.92
2022-11-09T21:06:05.073Z,62.20
2022-11-09T21:10:26.961Z,62.70
2022-11-09T21:14:45.638Z,63.03
2022-11-09T21:19:04.596Z,62.78
2022-11-09T21:23:39.074Z,62.84
2022-11-09T21:28:24.285Z,63.46
2022-11-09T21:32:43.870Z,63.43
2022-11-09T21:37:02.560Z,63.97
2022-11-09T21:41:33.955Z,64.09
2022-11-09T21:45:56.508Z,64.63
2022-11-09T21:50:15.546Z,64.52
2022-11-09T21:54:34.152Z,64.05
2022-11-09T21:58:53.154Z,64.35
2022-11-09T22:03:14.629Z,64.27
2022-11-09T22:07:32.984Z,63.64
2022-11-09T22:12:04.068Z,63.77
2022-11-09T22:16:26.340Z,63.77
2022-11-09T22:20:59.328Z,64.10
2022-11-09T22:25:18.316Z,63.98
2022-11-09T22:29:36.782Z,64.11
2022-11-09T22:33:56.369Z,63.88
2022-11-09T22:38:17.787Z,64.00
2022-11-09T22:42:36.770Z,63.97
2022-11-09T22:46:55.777Z,63.24
2022-11-09T22:51:17.202Z,63.04
2022-11-09T22:55:38.653Z,63.66
2022-11-09T22:59:57.113Z,63.97
2022-11-09T23:04:15.955Z,64.06
2022-11-09T23:08:38.168Z,64.90
2022-11-09T23:13:01.615Z,64.55
2022-11-09T23:17:32.629Z,64.38
2022-11-09T23:21:51.480Z,63.85
2022-11-09T23:26:11.633Z,65.10
2022-11-09T23:30:32.984Z,65.71
2022-11-09T23:34:51.496Z,64.91
2022-11-09T23:39:10.609Z,64.54
2022-11-09T23:43:29.132Z,64.38
2022-11-09T23:47:50.338Z,65.80
2022-11-09T23:52:09.201Z,65.81
2022-11-09T23:56:27.840Z,65.34
